sensor_id;sensor_type;location;lat;lon;timestamp;pressure;altitude;pressure_sealevel;temperature;humidity
62710;BME280;48770;51.624;5.886;2024-02-21T19:31:59;100174.00;;;24.46;37.00
62710;BME280;48770;51.624;5.886;2024-02-21T19:34:25;100167.09;;;23.64;38.45
62710;BME280;48770;51.624;5.886;2024-02-21T19:36:53;100166.88;;;22.95;40.22
62710;BME280;48770;51.624;5.886;2024-02-21T19:39:18;100161.88;;;22.40;41.63
62710;BME280;48770;51.624;5.886;2024-02-21T19:41:43;100147.38;;;22.61;41.40
62710;BME280;48770;51.624;5.886;2024-02-21T19:44:10;100145.84;;;24.07;38.24
62710;BME280;48770;51.624;5.886;2024-02-21T19:46:36;100138.88;;;23.73;39.02
62710;BME280;48770;51.624;5.886;2024-02-21T19:49:03;100133.53;;;23.09;39.84
62710;BME280;48770;51.624;5.886;2024-02-21T19:51:28;100125.81;;;22.55;41.21
62710;BME280;48770;51.624;5.886;2024-02-21T19:53:54;100120.59;;;22.16;41.91
62710;BME280;48770;51.624;5.886;2024-02-21T19:56:20;100124.31;;;23.01;40.46
62710;BME280;48770;51.624;5.886;2024-02-21T19:58:45;100114.03;;;23.60;39.29
62710;BME280;48770;51.624;5.886;2024-02-21T20:01:11;100114.94;;;23.20;40.18
62710;BME280;48770;51.624;5.886;2024-02-21T20:03:37;100102.06;;;22.68;40.91
62710;BME280;48770;51.624;5.886;2024-02-21T20:06:03;100082.91;;;22.26;42.30
62710;BME280;48770;51.624;5.886;2024-02-21T20:08:30;100089.25;;;22.23;41.91
62710;BME280;48770;51.624;5.886;2024-02-21T20:10:55;100079.94;;;23.92;38.89
62710;BME280;48770;51.624;5.886;2024-02-21T20:13:20;100083.09;;;23.83;39.25
62710;BME280;48770;51.624;5.886;2024-02-21T20:15:46;100071.94;;;23.28;39.80
62710;BME280;48770;51.624;5.886;2024-02-21T20:18:11;100055.16;;;22.73;41.00
62710;BME280;48770;51.624;5.886;2024-02-21T20:20:38;100056.34;;;22.35;42.24
62710;BME280;48770;51.624;5.886;2024-02-21T20:23:05;100052.50;;;22.47;42.01
62710;BME280;48770;51.624;5.886;2024-02-21T20:25:37;100049.28;;;22.41;42.08
62710;BME280;48770;51.624;5.886;2024-02-21T20:28:03;100040.22;;;22.14;42.63
62710;BME280;48770;51.624;5.886;2024-02-21T20:30:29;100035.50;;;21.89;42.80
62710;BME280;48770;51.624;5.886;2024-02-21T20:32:54;100032.03;;;21.65;43.39
62710;BME280;48770;51.624;5.886;2024-02-21T20:35:20;100025.41;;;21.47;43.89
62710;BME280;48770;51.624;5.886;2024-02-21T20:37:46;100026.38;;;21.32;44.65
62710;BME280;48770;51.624;5.886;2024-02-21T20:40:11;100020.22;;;21.19;44.74
62710;BME280;48770;51.624;5.886;2024-02-21T20:42:37;100023.28;;;21.10;45.34
62710;BME280;48770;51.624;5.886;2024-02-21T20:45:02;100004.88;;;21.02;45.27
62710;BME280;48770;51.624;5.886;2024-02-21T20:47:28;100005.56;;;20.96;45.40
62710;BME280;48770;51.624;5.886;2024-02-21T20:49:53;99997.91;;;20.89;45.73
62710;BME280;48770;51.624;5.886;2024-02-21T20:52:21;100002.19;;;20.83;45.78
62710;BME280;48770;51.624;5.886;2024-02-21T20:54:46;99994.53;;;20.76;45.75
62710;BME280;48770;51.624;5.886;2024-02-21T20:57:12;99999.97;;;20.69;46.02
62710;BME280;48770;51.624;5.886;2024-02-21T20:59:37;99997.16;;;20.66;46.25
62710;BME280;48770;51.624;5.886;2024-02-21T21:02:03;99985.56;;;20.60;46.01
62710;BME280;48770;51.624;5.886;2024-02-21T21:04:28;99995.44;;;20.57;45.91
62710;BME280;48770;51.624;5.886;2024-02-21T21:06:53;99976.28;;;20.52;46.42
62710;BME280;48770;51.624;5.886;2024-02-21T21:09:19;99976.22;;;20.49;46.05
62710;BME280;48770;51.624;5.886;2024-02-21T21:11:45;99971.78;;;20.44;46.13
62710;BME280;48770;51.624;5.886;2024-02-21T21:14:11;99972.53;;;20.41;46.45
62710;BME280;48770;51.624;5.886;2024-02-21T21:16:36;99976.00;;;20.38;46.31
62710;BME280;48770;51.624;5.886;2024-02-21T21:19:02;99967.63;;;20.35;46.41
62710;BME280;48770;51.624;5.886;2024-02-21T21:21:27;99959.66;;;20.33;46.34
62710;BME280;48770;51.624;5.886;2024-02-21T21:23:52;99955.66;;;20.30;46.60
62710;BME280;48770;51.624;5.886;2024-02-21T21:26:19;99957.19;;;20.28;46.49
62710;BME280;48770;51.624;5.886;2024-02-21T21:28:44;99951.56;;;20.24;46.88
62710;BME280;48770;51.624;5.886;2024-02-21T21:31:09;99954.72;;;20.23;46.73
62710;BME280;48770;51.624;5.886;2024-02-21T21:33:35;99965.38;;;20.21;46.45
62710;BME280;48770;51.624;5.886;2024-02-21T21:36:00;99952.69;;;20.20;46.39
62710;BME280;48770;51.624;5.886;2024-02-21T21:38:26;99943.50;;;20.16;46.62
62710;BME280;48770;51.624;5.886;2024-02-21T21:40:52;99939.91;;;20.15;46.40
62710;BME280;48770;51.624;5.886;2024-02-21T21:43:17;99945.84;;;20.14;46.52
62710;BME280;48770;51.624;5.886;2024-02-21T21:45:45;99945.41;;;20.12;46.28
62710;BME280;48770;51.624;5.886;2024-02-21T21:48:10;99941.84;;;20.11;46.33
62710;BME280;48770;51.624;5.886;2024-02-21T21:50:36;99927.91;;;20.08;46.54
62710;BME280;48770;51.624;5.886;2024-02-21T21:53:02;99935.03;;;20.09;46.41
62710;BME280;48770;51.624;5.886;2024-02-21T21:55:27;99917.59;;;20.08;46.28
62710;BME280;48770;51.624;5.886;2024-02-21T21:57:53;99926.66;;;20.05;46.35
62710;BME280;48770;51.624;5.886;2024-02-21T22:00:18;99928.63;;;20.05;46.53
62710;BME280;48770;51.624;5.886;2024-02-21T22:02:44;99917.53;;;20.05;46.36
62710;BME280;48770;51.624;5.886;2024-02-21T22:05:13;99907.56;;;20.03;46.46
62710;BME280;48770;51.624;5.886;2024-02-21T22:07:38;99896.06;;;20.01;46.36
62710;BME280;48770;51.624;5.886;2024-02-21T22:10:03;99900.00;;;20.00;46.23
62710;BME280;48770;51.624;5.886;2024-02-21T22:12:30;99904.75;;;20.00;46.33
62710;BME280;48770;51.624;5.886;2024-02-21T22:14:56;99900.75;;;19.97;46.35
62710;BME280;48770;51.624;5.886;2024-02-21T22:17:21;99897.97;;;19.97;46.31
62710;BME280;48770;51.624;5.886;2024-02-21T22:19:46;99886.44;;;19.95;46.50
62710;BME280;48770;51.624;5.886;2024-02-21T22:22:12;99887.59;;;19.94;46.34
62710;BME280;48770;51.624;5.886;2024-02-21T22:24:37;99872.13;;;19.93;46.49
62710;BME280;48770;51.624;5.886;2024-02-21T22:27:03;99872.13;;;19.93;46.27
62710;BME280;48770;51.624;5.886;2024-02-21T22:29:29;99865.78;;;19.93;46.50
62710;BME280;48770;51.624;5.886;2024-02-21T22:31:55;99864.19;;;19.92;46.28
62710;BME280;48770;51.624;5.886;2024-02-21T22:34:21;99864.56;;;19.90;46.39
62710;BME280;48770;51.624;5.886;2024-02-21T22:36:46;99868.13;;;19.91;46.38
62710;BME280;48770;51.624;5.886;2024-02-21T22:39:12;99851.84;;;19.89;46.48
62710;BME280;48770;51.624;5.886;2024-02-21T22:41:37;99853.81;;;19.89;46.31
62710;BME280;48770;51.624;5.886;2024-02-21T22:44:02;99857.78;;;19.88;46.47
62710;BME280;48770;51.624;5.886;2024-02-21T22:46:28;99852.59;;;19.86;46.23
62710;BME280;48770;51.624;5.886;2024-02-21T22:48:53;99843.47;;;19.86;46.52
62710;BME280;48770;51.624;5.886;2024-02-21T22:51:19;99846.63;;;19.84;46.34
62710;BME280;48770;51.624;5.886;2024-02-21T22:53:44;99840.28;;;19.84;46.46
62710;BME280;48770;51.624;5.886;2024-02-21T22:56:09;99842.25;;;19.83;46.40
62710;BME280;48770;51.624;5.886;2024-02-21T22:58:36;99837.50;;;19.84;46.38
62710;BME280;48770;51.624;5.886;2024-02-21T23:01:01;99837.88;;;19.82;46.41
62710;BME280;48770;51.624;5.886;2024-02-21T23:03:26;99825.97;;;19.82;46.38
62710;BME280;48770;51.624;5.886;2024-02-21T23:05:52;99828.75;;;19.82;46.23
62710;BME280;48770;51.624;5.886;2024-02-21T23:08:17;99824.38;;;19.81;46.04
62710;BME280;48770;51.624;5.886;2024-02-21T23:10:43;99815.25;;;19.80;46.52
62710;BME280;48770;51.624;5.886;2024-02-21T23:13:11;99820.78;;;19.80;46.24
62710;BME280;48770;51.624;5.886;2024-02-21T23:15:36;99817.22;;;19.80;46.29
62710;BME280;48770;51.624;5.886;2024-02-21T23:18:01;99819.19;;;19.79;46.61
62710;BME280;48770;51.624;5.886;2024-02-21T23:20:27;99809.25;;;19.78;46.29
62710;BME280;48770;51.624;5.886;2024-02-21T23:22:53;99802.88;;;19.78;46.23
62710;BME280;48770;51.624;5.886;2024-02-21T23:25:19;99813.19;;;19.77;46.18
62710;BME280;48770;51.624;5.886;2024-02-21T23:27:46;99809.59;;;19.77;46.10
62710;BME280;48770;51.624;5.886;2024-02-21T23:30:12;99810.78;;;19.76;46.39
62710;BME280;48770;51.624;5.886;2024-02-21T23:32:38;99802.47;;;19.76;46.14
62710;BME280;48770;51.624;5.886;2024-02-21T23:35:05;99802.47;;;19.76;46.52
62710;BME280;48770;51.624;5.886;2024-02-21T23:37:31;99793.34;;;19.75;46.16
62710;BME280;48770;51.624;5.886;2024-02-21T23:39:56;99806.41;;;19.75;46.15
62710;BME280;48770;51.624;5.886;2024-02-21T23:42:22;99795.69;;;19.73;46.49
62710;BME280;48770;51.624;5.886;2024-02-21T23:44:47;99795.69;;;19.73;46.38
62710;BME280;48770;51.624;5.886;2024-02-21T23:47:14;99792.09;;;19.73;46.21
62710;BME280;48770;51.624;5.886;2024-02-21T23:49:40;99790.13;;;19.73;46.36
62710;BME280;48770;51.624;5.886;2024-02-21T23:52:05;99788.53;;;19.72;46.17
62710;BME280;48770;51.624;5.886;2024-02-21T23:54:31;99788.91;;;19.70;46.48
62710;BME280;48770;51.624;5.886;2024-02-21T23:56:56;99793.28;;;19.71;46.22
62710;BME280;48770;51.624;5.886;2024-02-21T23:59:21;99788.91;;;19.70;46.21
